Dades de l'estació automàtica Barcelona - el Raval

?
?

Resum diari

22:30 TU
Dades diàries de l'estació meteorològica
Temperatura mitjana 16.1 °C
Temperatura màxima 20.3 °C 12:49 TU
Temperatura mínima 13.8 °C 3:24 TU
Humitat relativa mitjana 60%
Precipitació acumulada 0.0 mm
Ratxa màxima del vent (10 m) 16.9 km/h - 1º 4:48 TU
Pressió atmosfèrica mitjana 1015.0 hPa
Irradiació solar global 8.7 MJ/m2

El tram horari està expressat en Temps Universal (TU). Cal sumar una hora en horari d'hivern i dues en horari d'estiu per passar a l'hora oficial.

Barcelona - el Raval

Metadades estació meteorològica
Municipi Barcelona
Comarca Barcelonès
Altitud 33 m
Data alta 11.10.2006
Estat actual Operativa
Dades de període
Període
TU
TM
°C
TX
°C
TN
°C
HRM
%
PPT
mm
VVM (10 m)
km/h
DVM (10 m)
graus
VVX (10 m)
km/h
PM
hPa
RS
W/m2
00:00 - 00:30 15.0 15.3 14.6 77 0.0 5.4 47 13.7 1010.8 0
00:30 - 01:00 14.4 14.6 14.2 83 0.0 4.3 40 11.9 1010.9 0
01:00 - 01:30 14.1 14.2 14.0 85 0.0 4.0 40 9.0 1011.1 0
01:30 - 02:00 13.9 14.0 13.9 85 0.0 3.6 31 9.0 1011.1 0
02:00 - 02:30 13.9 14.0 13.9 84 0.0 3.6 32 10.1 1011.3 0
02:30 - 03:00 13.9 14.0 13.9 82 0.0 4.3 10 11.5 1011.5 0
03:00 - 03:30 13.9 14.0 13.8 81 0.0 5.0 1 13.7 1011.5 0
03:30 - 04:00 14.0 14.1 13.9 78 0.0 5.4 27 16.2 1011.6 0
04:00 - 04:30 14.2 14.2 14.1 75 0.0 5.0 29 15.8 1011.7 0
04:30 - 05:00 14.3 14.4 14.1 72 0.0 5.4 24 16.9 1011.9 0
05:00 - 05:30 14.5 14.6 14.4 69 0.0 6.1 27 16.9 1012.2 0
05:30 - 06:00 14.5 14.6 14.4 66 0.0 4.0 21 11.5 1012.5 0
06:00 - 06:30 14.4 14.5 14.3 66 0.0 3.6 16 9.4 1012.8 0
06:30 - 07:00 14.4 14.4 14.3 65 0.0 3.2 7 8.3 1013.3 0
07:00 - 07:30 14.3 14.4 14.1 65 0.0 2.9 18 9.0 1013.7 15
07:30 - 08:00 15.0 15.9 14.3 62 0.0 2.2 323 6.8 1014.2 85
08:00 - 08:30 16.2 16.6 15.7 57 0.0 3.6 337 8.6 1014.8 159
08:30 - 09:00 16.9 17.5 16.3 54 0.0 3.2 344 9.4 1015.2 232
09:00 - 09:30 18.0 18.3 17.6 49 0.0 3.6 1 10.8 1015.5 299
09:30 - 10:00 18.5 19.1 17.9 46 0.0 3.6 22 14.0 1015.8 357
10:00 - 10:30 18.8 19.3 18.5 42 0.0 3.2 57 11.9 1016.0 404
10:30 - 11:00 19.3 19.7 19.1 40 0.0 4.7 16 14.8 1016.0 435
11:00 - 11:30 19.3 19.6 18.9 38 0.0 4.0 35 12.6 1015.9 441
11:30 - 12:00 19.3 19.8 19.0 38 0.0 4.3 83 11.9 1015.7 462
12:00 - 12:30 19.7 20.2 19.3 37 0.0 3.6 237 11.9 1015.6 439
12:30 - 13:00 19.9 20.3 19.5 37 0.0 4.0 160 9.0 1015.3 424
13:00 - 13:30 19.5 20.1 18.9 40 0.0 5.4 147 11.5 1015.1 321
13:30 - 14:00 18.7 18.8 18.5 44 0.0 6.1 166 10.8 1015.0 280
14:00 - 14:30 18.7 18.9 18.4 43 0.0 4.3 148 9.7 1015.0 205
14:30 - 15:00 18.2 18.4 18.1 45 0.0 5.4 197 12.6 1015.3 151
15:00 - 15:30 18.3 18.5 18.1 45 0.0 3.2 196 7.9 1015.7 123
15:30 - 16:00 18.2 18.5 17.8 44 0.0 3.2 244 9.4 1015.9 56
16:00 - 16:30 17.3 17.8 16.8 49 0.0 4.0 244 9.7 1016.3 9
16:30 - 17:00 16.6 16.8 16.5 54 0.0 5.4 259 10.1 1016.6 0
17:00 - 17:30 16.4 16.5 16.2 55 0.0 5.4 272 9.7 1016.9 0
17:30 - 18:00 16.0 16.2 15.9 58 0.0 6.1 268 10.1 1017.2 0
18:00 - 18:30 15.8 15.9 15.7 60 0.0 4.3 275 6.8 1017.3 0
18:30 - 19:00 15.5 15.7 15.1 62 0.0 3.2 265 6.1 1017.6 0
19:00 - 19:30 15.0 15.2 14.7 65 0.0 2.5 264 4.0 1017.9 0
19:30 - 20:00 14.9 15.2 14.7 65 0.0 2.5 276 5.8 1018.1 0
20:00 - 20:30 14.7 15.1 14.4 66 0.0 2.5 267 5.4 1018.2 0
20:30 - 21:00 15.0 15.1 14.6 61 0.0 4.3 268 7.2 1018.4 0
21:00 - 21:30 14.4 14.9 14.2 64 0.0 1.4 221 3.2 1018.7 0
21:30 - 22:00 14.4 14.7 14.2 65 0.0 2.9 272 10.4 1018.8 0
22:00 - 22:30 14.5 14.7 14.3 65 0.0 6.5 319 13.7 1019.0 0
22:30 - 23:00 14.2 14.3 14.2 66 0.0 6.8 322 14.0 1019.2 0

Les dades en taronja només han passat un control de qualitat automàtic. Resta pendent la seva validació definitiva.